LFRILFRS

Guest
Details From LFRI - La Roche sur Yon les Ajoncs
To LFRS - Nantes_Atlantique
Flight Number -
Tags generated
Created
Modified
Stats Distance 29 nm / 55 km
Max Altitude 0 ft / 0 m
Waypoints 3
Social Downloads 0
Likes 0
Share VATSIM

Download

Looking for another format? Having issues loading an existing format? Contact us
Advertisement - Login to hide

Notes

Basic altitude profile: - Ascent Rate: 2500ft/min - Ascent Speed: 250kts - Cruise Altitude: 35000ft - Cruise Speed: 420kts - Descent Rate: 1500ft/min - Descent Speed: 250kts Options: - Use NATs: no - Use PACOTS: no - Use low airways: no - Use high airways: yes

Route

LFRI NTS LFRS

ID Type Via Altitude Latitude Longitude Leg Dist Tot Dist Heading (true) Name
O LFRI APT - 0 ft / 0 m 46.70194˚ -1.37862˚ - 0 nm - La Roche sur Yon les Ajoncs
NTS VOR - 0 ft / 0 m 47.16086˚ -1.61296˚ 29 nm 29 nm 341° / 341° NANTES ATLANTIQUE VOR-DME
O LFRS APT - 0 ft / 0 m 47.15604˚ -1.61119˚ 0 nm 29 nm 166° / 166° Nantes_Atlantique

Altitude Profile

Advertisement - Login to hide

LFRI

Details ICAO LFRI (EDM)
Name La Roche sur Yon les Ajoncs
Region France
Timezone Europe/Paris (UTC+2.0)
Stats Elevation 299 ft / 91 m (AMSL)
Location 46.701944° -1.378625°
Runways 1
Magnetic Variation 0.340° W

METAR

LFRI 271630Z AUTO 24005KT 180V270 9999 BKN031 22/15 Q1014 NOSIG

Decode

TAF

TAF LFRI 271100Z 2712/2812 20006KT 9999 BKN030 TEMPO 2800/2806 3000 BR PROB30 TEMPO 2803/2807 0400 FG VV///

Decode

Departure Runways

ID Width Length Bearing (true) Bearing (mag) Surface Threshold Offset Overrun Length
10 98 ft / 30 m 5,073 ft / 1,546 m 101.40° 101.74° Asphalt 0 ft / 0 m 0 ft / 0 m
28 98 ft / 30 m 5,073 ft / 1,546 m 281.42° 281.76° Asphalt 951 ft / 290 m 0 ft / 0 m

LFRS

Details ICAO LFRS (NTE)
Name Nantes_Atlantique
Region France
Timezone Europe/Paris (UTC+2.0)
Stats Elevation 89 ft / 27 m (AMSL)
Location 47.156040° -1.611186°
Runways 2
Magnetic Variation 0.450° W

METAR

LFRS 271630Z AUTO 26008KT 230V290 9999 FEW025 21/15 Q1014 TEMPO -TSRA SCT040CB

Decode

TAF

TAF LFRS 271100Z 2712/2818 26006KT 9999 BKN030 PROB30 TEMPO 2715/2720 -TSRA SCT040CB TEMPO 2800/2807 3000 BR BKN002 PROB30 TEMPO 2813/2818 VRB15G25KT 4000 TSRA BKN030CB

Decode

Destination Runways

ID Width Length Bearing (true) Bearing (mag) Surface Threshold Offset Overrun Length
03 148 ft / 45 m 9,526 ft / 2,903 m 27.35° 27.80° Asphalt 0 ft / 0 m 0 ft / 0 m
13 100 ft / 30 m 1,999 ft / 609 m 125.55° 126.00° Concrete 0 ft / 0 m 0 ft / 0 m
21 148 ft / 45 m 9,526 ft / 2,903 m 207.37° 207.82° Asphalt 689 ft / 210 m 0 ft / 0 m
31 100 ft / 30 m 1,999 ft / 609 m 305.56° 306.01° Concrete 0 ft / 0 m 0 ft / 0 m

Approach Navaids

Runway Type Ident Frequency Range Bearing (true) Bearing (mag) Slope Elevation
03 Localiser NT 109.90 MHz 27 nm / 50 km 27.42° 27.87° - 89 ft / 27 m (AMSL)
03 Glidescope NT 109.90 MHz 27 nm / 50 km 27.42° 27.87° 3.00° 89 ft / 27 m (AMSL)
03 DME NT 109.90 MHz 27 nm / 50 km - - - 89 ft / 27 m (AMSL)

Popular Alternatives